EDT,Max TemperatureF,Mean TemperatureF,Min TemperatureF,Max Dew PointF,MeanDew PointF,Min DewpointF,Max Humidity, Mean Humidity, Min Humidity, Max Sea Level PressureIn, Mean Sea Level PressureIn, Min Sea Level PressureIn, Max VisibilityMiles, Mean VisibilityMiles, Min VisibilityMiles, Max Wind SpeedMPH, Mean Wind SpeedMPH, Max Gust SpeedMPH,PrecipitationIn, CloudCover, Events, WindDirDegrees
2013-4-1,78,68,57,61,57,54,94,72,44,29.96,29.91,29.86,10,10,2,14,7,17,0.02,3,Rain,251
2013-4-2,62,55,48,55,46,37,100,71,39,30.15,30.08,29.95,10,10,7,10,3,20,0.00,0,,90
2013-4-3,66,56,46,55,48,41,100,78,48,30.23,30.16,30.08,10,8,1,12,2,21,0.00,1,,56
2013-4-4,64,58,51,64,52,43,100,85,59,30.25,30.03,29.84,10,7,1,12,6,29,0.41,7,Rain,38
2013-4-5,60,52,44,50,47,43,100,85,63,30.04,29.94,29.88,10,9,2,15,8,18,0.15,6,Rain,343
2013-4-6,69,56,44,52,46,34,100,76,28,30.25,30.16,30.04,10,8,1,12,2,21,0.00,0,,80
2013-4-7,73,60,48,61,54,48,100,84,43,30.27,30.21,30.16,10,6,1,12,2,17,0.00,1,,129
2013-4-8,77,64,51,63,58,52,100,82,54,30.21,30.17,30.13,10,7,3,15,3,21,0.00,0,,169
2013-4-9,80,68,57,66,61,57,100,81,48,30.24,30.18,30.14,10,8,1,14,3,18,0.00,0,,190
2013-4-10,78,68,57,64,62,57,100,82,51,30.19,30.13,30.04,10,9,2,15,5,20,0.00,0,,190
2013-4-11,78,69,60,70,67,61,100,92,74,30.04,29.97,29.87,10,6,4,17,5,23,0.00,3,,176
2013-4-12,80,74,68,72,69,66,100,91,74,29.88,29.81,29.75,7,4,0,22,12,32,1.36,5,Rain-Thunderstorm,198
2013-4-13,73,63,53,66,52,46,100,67,38,30.04,29.94,29.84,10,10,5,9,5,,0.00,0,,331
2013-4-14,71,61,51,64,58,52,100,88,68,30.10,30.05,29.95,10,7,2,8,1,18,0.26,1,Rain,101
2013-4-15,73,68,62,64,63,61,100,90,65,30.17,30.03,29.89,10,6,1,8,3,18,1.17,6,Rain,71
2013-4-16,78,69,60,64,62,61,100,83,54,30.25,30.21,30.17,10,6,2,8,2,,0.00,0,,78
2013-4-17,78,69,60,68,63,61,100,84,54,30.24,30.20,30.16,10,6,0,10,2,,0.00,2,Fog,118
2013-4-18,80,71,62,70,65,63,100,86,61,30.16,30.11,30.05,10,8,3,12,3,21,0.00,1,Rain,128
2013-4-19,80,74,68,72,70,66,100,89,74,30.05,29.96,29.88,10,6,1,25,10,34,2.32,2,Rain-Thunderstorm,191
2013-4-20,69,58,46,70,50,45,100,81,55,30.25,30.10,29.93,10,9,2,15,7,20,0.96,3,Rain,335
2013-4-21,66,56,46,52,48,45,100,71,52,30.34,30.30,30.25,10,9,6,16,6,31,0.00,2,,39
2013-4-22,71,60,48,52,46,36,82,64,46,30.30,30.22,30.13,10,10,9,14,8,24,0.00,1,,16
2013-4-23,68,60,53,55,52,48,100,81,64,30.22,30.17,30.14,10,9,3,9,4,17,0.00,5,,16
2013-4-24,77,62,48,63,55,48,100,80,47,30.20,30.15,30.08,10,8,3,15,3,20,0.00,0,,185
2013-4-25,82,73,64,66,64,63,100,83,51,30.23,30.15,30.10,10,7,0,14,5,39,1.29,2,Rain-Thunderstorm,215
2013-4-26,73,64,55,63,54,39,100,75,29,30.39,30.32,30.23,10,7,2,12,5,23,0.00,3,,53
2013-4-27,73,63,53,59,54,46,100,73,38,30.35,30.30,30.25,10,9,4,8,2,,0.00,1,,76
2013-4-28,75,65,55,64,62,55,100,86,69,30.24,30.15,30.06,10,8,2,17,4,22,0.01,3,Rain,151
2013-4-29,80,72,64,70,65,63,100,87,54,30.07,30.01,29.96,10,6,0,14,6,20,1.30,4,Rain-Thunderstorm,188
2013-4-30,75,68,62,66,64,61,100,92,69,30.10,30.03,29.97,10,6,0,9,2,,0.03,3,Fog-Rain-Thunderstorm,46